Meteorología y climatología de Navarra
Datos de la estación - Meteo Navarra

Estación de Arangoiti GN

Altitud 1353 m.


Datos desde el 03/12/2019 hasta el 04/12/2019 en horario solar
Los datos son PROVISIONALES

Anterior Página 1 de 1 Siguiente Descargar: Formato para Excel 2000 o superior   Formato csv   Formato para OpenOffice Calc
Fecha Temperatura Humedad relativa Radiación global Insolación Precipitación Vel. viento 10 m Vel. viento 10 m Dir. viento 10 m
ºC % W/m² s l/m² m/s km/h º
03/12/2019 0:00 -2.4 97 0.0 0 0.0 8.5 30.7 358
03/12/2019 0:10 -2.4 97 0.0 0 0.0 7.9 28.5 359
03/12/2019 0:20 -2.7 97 0.0 0 0.0 7.9 28.5 358
03/12/2019 0:30 -2.7 97 0.0 0 0.0 7.8 28.1 357
03/12/2019 0:40 -2.8 97 0.0 0 0.0 7.9 28.5 359
03/12/2019 0:50 -2.8 97 0.0 0 0.0 7.8 27.9 3
03/12/2019 1:00 -2.8 97 0.0 0 0.0 7.8 28.1 7
03/12/2019 1:10 -3.1 97 0.0 0 0.0 8.0 28.9 9
03/12/2019 1:20 -3.1 97 0.0 0 0.0 7.6 27.2 12
03/12/2019 1:30 -2.9 97 0.0 0 0.0 6.6 23.6 18
03/12/2019 1:40 -2.9 97 0.0 0 0.0 6.1 21.9 21
03/12/2019 1:50 -2.7 97 0.0 0 0.0 6.0 21.7 23
03/12/2019 2:00 -2.9 97 0.0 0 0.0 5.6 20.3 20
03/12/2019 2:10 -3.1 97 0.0 0 0.0 5.9 21.1 18
03/12/2019 2:20 -3.3 96 0.0 0 0.0 5.8 20.8 15
03/12/2019 2:30 -3.3 97 0.0 0 0.0 5.2 18.6 12
03/12/2019 2:40 -3.1 97 0.0 0 0.0 5.5 19.9 18
03/12/2019 2:50 -3.2 97 0.0 0 0.0 5.2 18.8 17
03/12/2019 3:00 -3.2 97 0.0 0 0.0 5.5 19.7 23
03/12/2019 3:10 -2.9 97 0.0 0 0.0 6.0 21.4 26
03/12/2019 3:20 -3.0 97 0.0 0 0.0 5.8 20.9 27
03/12/2019 3:30 -2.9 97 0.0 0 0.0 6.1 22.0 27
03/12/2019 3:40 -3.0 96 0.0 0 0.0 5.7 20.7 31
03/12/2019 3:50 -3.1 97 0.0 0 0.0 5.7 20.3 31
03/12/2019 4:00 -2.8 97 0.0 0 0.0 5.8 20.7 28
03/12/2019 4:10 -3.0 97 0.0 0 0.0 6.1 21.9 26
03/12/2019 4:20 -2.9 97 0.0 0 0.0 6.2 22.2 31
03/12/2019 4:30 -3.1 97 0.0 0 0.0 6.2 22.4 34
03/12/2019 4:40 -3.0 97 0.0 0 0.0 6.5 23.2 36
03/12/2019 4:50 -3.1 97 0.0 0 0.0 6.2 22.4 37
03/12/2019 5:00 -2.9 97 0.0 0 0.0 5.4 19.6 37
03/12/2019 5:10 -3.1 97 0.0 0 0.0 5.4 19.3 33
03/12/2019 5:20 -2.9 97 0.0 0 0.0 5.6 20.2 34
03/12/2019 5:30 -2.9 97 0.0 0 0.0 6.3 22.5 32
03/12/2019 5:40 -2.9 97 0.0 0 0.0 6.8 24.5 34
03/12/2019 5:50 -2.9 97 0.0 0 0.0 6.7 23.9 35
03/12/2019 6:00 -3.0 97 0.0 0 0.0 6.1 22.0 38
03/12/2019 6:10 -3.0 97 0.0 0 0.0 6.0 21.4 39
03/12/2019 6:20 -3.1 97 0.0 0 0.0 6.0 21.7 38
03/12/2019 6:30 -2.9 97 0.0 0 0.0 5.9 21.2 40
03/12/2019 6:40 -2.9 97 0.0 0 0.0 5.9 21.3 40
03/12/2019 6:50 -3.0 97 0.0 0 0.0 5.5 19.8 39
03/12/2019 7:00 -2.9 97 0.0 0 0.0 5.5 19.7 40
03/12/2019 7:10 -2.9 97 2.1 0 0.0 5.4 19.3 42
03/12/2019 7:20 -2.9 96 20.4 84 0.0 4.8 17.4 44
03/12/2019 7:30 -2.6 97 52.7 600 0.0 3.0 10.7 46
03/12/2019 7:40 -2.6 97 81.0 600 0.0 3.0 10.7 41
03/12/2019 7:50 -2.0 97 108.5 600 0.0 2.0 7.3 47
03/12/2019 8:00 -2.2 96 133.0 600 0.0 2.1 7.7 41
03/12/2019 8:10 -2.3 96 121.1 600 0.0 2.4 8.5 38
03/12/2019 8:20 -2.4 97 72.1 214 0.0 2.3 8.4 40
03/12/2019 8:30 -1.9 97 186.2 600 0.0 2.2 7.9 38
03/12/2019 8:40 -1.9 96 211.4 600 0.0 0.8 2.8 50
03/12/2019 8:50 -1.4 98 227.6 600 0.0 0.6 2.3 52
03/12/2019 9:00 -0.5 98 247.5 600 0.0 1.8 6.4 127
03/12/2019 9:10 0.2 97 272.6 600 0.0 2.9 10.3 140
03/12/2019 9:20 0.2 96 298.6 600 0.0 3.6 12.8 147
03/12/2019 9:30 0.3 95 324.0 600 0.0 2.5 9.0 143
03/12/2019 9:40 0.5 93 353.2 600 0.0 2.8 10.1 148
03/12/2019 9:50 0.6 90 380.2 600 0.0 3.6 12.8 151
03/12/2019 10:00 0.6 86 410.7 600 0.0 3.2 11.6 143
03/12/2019 10:10 1.0 84 437.7 600 0.0 3.3 11.7 142
03/12/2019 10:20 1.2 83 479.0 600 0.1 3.1 11.2 149
03/12/2019 10:30 1.6 82 510.2 600 0.0 2.9 10.3 147
03/12/2019 10:40 2.0 81 539.6 600 0.0 2.8 10.1 149
03/12/2019 10:50 2.1 80 536.9 600 0.0 3.3 11.8 149
03/12/2019 11:00 1.9 73 531.7 600 0.0 4.0 14.5 145
03/12/2019 11:10 2.5 69 535.5 600 0.1 4.3 15.4 147
03/12/2019 11:20 2.9 71 544.7 600 0.0 4.5 16.2 149
03/12/2019 11:30 3.1 71 545.7 600 0.0 4.4 15.7 149
03/12/2019 11:40 2.8 70 544.8 600 0.0 4.0 14.4 152
03/12/2019 11:50 3.1 72 544.2 600 0.0 4.3 15.5 156
03/12/2019 12:00 2.8 73 541.6 600 0.0 4.6 16.5 158
03/12/2019 12:10 3.6 71 537.2 600 0.0 4.2 14.9 161
03/12/2019 12:20 3.3 78 528.8 600 0.0 4.3 15.4 163
03/12/2019 12:30 3.1 78 503.3 600 0.0 4.7 17.0 162
03/12/2019 12:40 2.7 78 484.6 600 0.0 4.5 16.3 162
03/12/2019 12:50 3.2 76 465.7 600 0.0 4.4 16.0 155
03/12/2019 13:00 2.8 79 447.0 600 0.0 4.9 17.6 161
03/12/2019 13:10 3.1 77 435.5 600 0.0 4.9 17.5 166
03/12/2019 13:20 3.4 76 420.6 600 0.0 4.1 14.9 167
03/12/2019 13:30 3.4 77 398.9 600 0.0 4.2 15.3 171
03/12/2019 13:40 2.9 81 379.9 600 0.0 4.2 15.0 172
03/12/2019 13:50 3.1 79 360.5 600 0.0 3.7 13.5 176
03/12/2019 14:00 2.9 78 341.0 600 0.0 3.8 13.6 170
03/12/2019 14:10 2.7 81 321.7 600 0.0 3.3 12.0 171
03/12/2019 14:20 2.2 83 301.5 600 0.0 4.2 15.2 176
03/12/2019 14:30 2.3 84 281.8 600 0.0 4.1 14.8 178
03/12/2019 14:40 1.9 86 266.4 600 0.0 4.6 16.7 176
03/12/2019 14:50 1.6 89 220.2 532 0.0 5.1 18.4 188
03/12/2019 15:00 2.0 87 211.4 600 0.0 4.2 15.3 178
03/12/2019 15:10 2.0 87 186.9 600 0.0 3.8 13.6 181
03/12/2019 15:20 1.3 89 162.5 600 0.0 4.5 16.1 178
03/12/2019 15:30 1.3 91 139.9 600 0.0 4.2 15.2 170
03/12/2019 15:40 1.1 91 116.7 600 0.0 4.6 16.5 173
03/12/2019 15:50 0.8 93 92.0 600 0.0 4.2 15.0 178
03/12/2019 16:00 0.6 93 71.7 600 0.0 4.9 17.5 175
03/12/2019 16:10 0.7 93 53.5 600 0.0 5.0 18.0 167
03/12/2019 16:20 0.4 94 37.2 572 0.0 5.3 19.2 170
03/12/2019 16:30 0.8 94 21.6 0 0.0 5.5 19.8 171
03/12/2019 16:40 0.8 92 10.3 0 0.0 5.9 21.3 175
03/12/2019 16:50 0.4 96 0.0 0 0.0 5.3 19.0 172
03/12/2019 17:00 0.4 94 0.0 0 0.0 5.7 20.6 164
03/12/2019 17:10 0.4 95 0.0 0 0.0 5.2 18.5 161
03/12/2019 17:20 0.4 94 0.0 0 0.0 4.9 17.8 157
03/12/2019 17:30 0.6 90 0.0 0 0.0 6.6 23.7 162
03/12/2019 17:40 0.5 90 0.0 0 0.0 8.1 29.2 163
03/12/2019 17:50 0.8 87 0.0 0 0.0 7.9 28.5 163
03/12/2019 18:00 0.6 87 0.0 0 0.0 7.4 26.5 161
03/12/2019 18:10 0.6 86 0.0 0 0.0 7.3 26.1 157
03/12/2019 18:20 0.6 84 0.0 0 0.0 7.7 27.8 157
03/12/2019 18:30 0.4 86 0.0 0 0.0 7.3 26.2 159
03/12/2019 18:40 0.7 81 0.0 0 0.0 6.4 22.9 152
03/12/2019 18:50 1.2 78 0.0 0 0.0 6.8 24.6 151
03/12/2019 19:00 1.2 81 0.0 0 0.0 8.0 28.7 156
03/12/2019 19:10 1.2 81 0.0 0 0.0 9.0 32.3 158
03/12/2019 19:20 1.3 84 0.0 0 0.0 8.0 28.9 157
03/12/2019 19:30 1.2 83 0.0 0 0.0 7.9 28.3 156
03/12/2019 19:40 1.2 84 0.0 0 0.0 8.0 28.6 157
03/12/2019 19:50 1.0 86 0.0 0 0.0 8.5 30.6 161
03/12/2019 20:00 1.1 85 0.0 0 0.0 9.1 32.7 163
03/12/2019 20:10 1.2 86 0.0 0 0.0 9.3 33.6 164
03/12/2019 20:20 1.0 87 0.0 0 0.0 8.6 31.1 163
03/12/2019 20:30 1.2 87 0.0 0 0.0 8.7 31.2 164
03/12/2019 20:40 1.2 87 0.0 0 0.0 8.8 31.8 164
03/12/2019 20:50 1.0 88 0.0 0 0.0 8.6 30.8 165
03/12/2019 21:00 1.2 89 0.0 0 0.0 8.9 32.0 166
03/12/2019 21:10 1.1 88 0.0 0 0.0 8.2 29.6 164
03/12/2019 21:20 0.8 88 0.0 0 0.0 8.4 30.1 165
03/12/2019 21:30 1.2 89 0.0 0 0.0 8.5 30.5 166
03/12/2019 21:40 0.8 90 0.0 0 0.0 8.5 30.5 168
03/12/2019 21:50 0.8 90 0.0 0 0.0 7.7 27.7 169
03/12/2019 22:00 1.1 90 0.0 0 0.0 7.2 25.8 165
03/12/2019 22:10 0.9 90 0.0 0 0.0 6.9 24.8 166
03/12/2019 22:20 0.8 90 0.0 0 0.0 7.3 26.2 165
03/12/2019 22:30 1.0 91 0.0 0 0.0 7.4 26.6 164
03/12/2019 22:40 1.0 91 0.0 0 0.0 7.5 27.1 163
03/12/2019 22:50 1.4 88 0.0 0 0.0 8.7 31.1 164
03/12/2019 23:00 2.1 85 0.0 0 0.0 9.3 33.3 161
03/12/2019 23:10 1.9 85 0.0 0 0.0 9.4 33.7 162
03/12/2019 23:20 2.1 85 0.0 0 0.0 9.9 35.6 160
03/12/2019 23:30 2.1 83 0.0 0 0.0 10.2 36.8 161
03/12/2019 23:40 2.1 83 0.0 0 0.0 10.8 38.7 160
03/12/2019 23:50 2.2 81 0.0 0 0.0 10.7 38.5 159
Anterior Página 1 de 1 Siguiente
Los datos de precipitación registrados en estaciones que están en cumbres son inferiores a lo real, como consecuencia del efecto del viento y de la nieve.


NOTA: Tipo de datos según el color:
   - Valores diarios o 10 minutos correctos
   - Valores diarios calculados a partir de un número de datos 10 minutos menor que 144 y mayor que 120, o de un número de datos semihorarios menor que 48 y mayor que 40 (caso de las estaciones de Riegos de Navarra y del MARM)
   - Valores diez minutos estimados


Contacto        Enlaces        Aviso legal